West Wauregan, Connecticut
Current Conditions -  °F | °C
As of 10:52 AM on Saturday 22 Nov 2014 (Local Time) from KIJD Reporting Station
Clear Clear  
Wind Chill: 31°   Ceiling: Unl
Heat Index: 38°   Visibility: 10mi
Dew Point:   Wind: 10mph
Humidity: 30%   Direction: 220°SW
Pressure: 30.36"   Gusts: NA
Location:  41.7443°N, 71.9127°W
Report Text: KIJD 221552Z AUTO 22009KT 10SM CLR 03/M13 A3036 RMK AO2 SLP281 T00331128
Loading
Personal Weather Stations






























Interactive Weather Map New forecast layout! Learn more

10-Day Weather Forecast

Advertisements
Track Severe Weather on mobile